createdAt,value
2018-09-11T00:00:59.496Z,95.94
2018-09-11T00:01:59.424Z,95.07
2018-09-11T00:02:59.318Z,96.70
2018-09-11T00:03:59.225Z,96.99
2018-09-11T00:04:59.233Z,95.94
2018-09-11T00:05:59.049Z,95.17
2018-09-11T00:06:58.969Z,94.89
2018-09-11T00:07:58.908Z,96.42
2018-09-11T00:08:58.776Z,97.76
2018-09-11T00:09:58.681Z,98.86
2018-09-11T00:10:58.590Z,99.72
2018-09-11T00:11:58.616Z,98.86
2018-09-11T00:12:58.408Z,98.57
2018-09-11T00:13:58.319Z,98.57
2018-09-11T00:14:58.232Z,98.38
2018-09-11T00:15:58.144Z,98.96
2018-09-11T00:16:58.066Z,98.67
2018-09-11T00:17:57.958Z,98.00
2018-09-11T00:18:57.963Z,98.00
2018-09-11T00:19:57.777Z,97.90
2018-09-11T00:20:57.683Z,98.28
2018-09-11T00:21:57.608Z,98.00
2018-09-11T00:22:57.500Z,98.14
2018-09-11T00:23:57.413Z,98.28
2018-09-11T00:24:57.350Z,97.38
2018-09-11T00:25:57.333Z,97.95
2018-09-11T00:26:57.160Z,98.24
2018-09-11T00:27:57.049Z,98.24
2018-09-11T00:28:56.958Z,98.81
2018-09-11T00:29:56.868Z,98.71
2018-09-11T00:30:56.775Z,98.14
2018-09-11T00:31:56.704Z,98.33
2018-09-11T00:32:56.691Z,98.52
2018-09-11T00:33:56.504Z,98.81
2018-09-11T00:34:56.412Z,99.19
2018-09-11T00:35:56.319Z,98.81
2018-09-11T00:36:56.253Z,98.43
2018-09-11T00:37:56.136Z,99.58
2018-09-11T00:38:56.052Z,99.29
2018-09-11T00:39:55.959Z,98.71
2018-09-11T00:40:55.868Z,98.81
2018-09-11T00:41:55.791Z,99.00
2018-09-11T00:42:55.687Z,99.29
2018-09-11T00:43:55.590Z,99.38
2018-09-11T00:44:55.501Z,99.67
2018-09-11T00:45:55.411Z,99.99
2018-09-11T00:46:55.342Z,99.58
2018-09-11T00:47:55.226Z,99.99
2018-09-11T00:48:55.140Z,99.99
2018-09-11T00:49:55.043Z,99.99
2018-09-11T00:50:54.957Z,99.99
2018-09-11T00:51:54.948Z,99.99
2018-09-11T00:52:54.774Z,99.99
2018-09-11T00:53:54.683Z,99.99
2018-09-11T00:54:54.588Z,99.99
2018-09-11T00:55:54.497Z,99.99
2018-09-11T00:56:54.423Z,99.99
2018-09-11T00:57:54.315Z,99.99
2018-09-11T00:58:54.224Z,99.99
2018-09-11T00:59:54.133Z,99.99
2018-09-11T01:00:54.041Z,99.99
2018-09-11T01:01:53.971Z,99.99
2018-09-11T01:02:53.862Z,99.99
2018-09-11T01:03:53.768Z,99.99
2018-09-11T01:04:53.672Z,99.99
2018-09-11T01:05:53.582Z,99.99
2018-09-11T01:06:53.505Z,99.99
2018-09-11T01:07:53.399Z,99.99
2018-09-11T01:08:53.313Z,99.99
2018-09-11T01:09:53.215Z,99.99
2018-09-11T01:10:53.126Z,99.99
2018-09-11T01:11:53.054Z,99.99
2018-09-11T01:12:52.944Z,99.99
2018-09-11T01:13:52.847Z,99.99
2018-09-11T01:14:52.760Z,99.99
2018-09-11T01:15:52.666Z,99.99
2018-09-11T01:16:52.577Z,99.99
2018-09-11T01:17:52.504Z,99.99
2018-09-11T01:18:52.405Z,99.99
2018-09-11T01:19:52.300Z,99.99
2018-09-11T01:20:52.215Z,99.99
2018-09-11T01:21:52.119Z,99.99
2018-09-11T01:22:52.048Z,99.99
2018-09-11T01:23:51.935Z,99.99
2018-09-11T01:24:51.842Z,99.99
2018-09-11T01:25:51.749Z,99.99
2018-09-11T01:26:51.663Z,99.99
2018-09-11T01:27:51.588Z,99.99
2018-09-11T01:28:51.490Z,99.99
2018-09-11T01:29:51.417Z,99.99
2018-09-11T01:30:51.295Z,99.99
2018-09-11T01:31:51.204Z,99.99
2018-09-11T01:32:51.126Z,99.99
2018-09-11T01:33:51.016Z,99.99
2018-09-11T01:34:50.931Z,99.99
2018-09-11T01:35:50.832Z,99.99
2018-09-11T01:36:50.743Z,99.99
2018-09-11T01:37:50.667Z,99.99
2018-09-11T01:38:50.560Z,99.99
2018-09-11T01:39:50.466Z,99.99
2018-09-11T01:40:50.374Z,99.99
2018-09-11T01:41:50.283Z,99.99
2018-09-11T01:42:50.207Z,99.99
2018-09-11T01:43:50.102Z,99.99
2018-09-11T01:44:50.011Z,99.99
2018-09-11T01:45:49.915Z,99.99
2018-09-11T01:46:49.825Z,99.99
2018-09-11T01:47:49.751Z,99.99
2018-09-11T01:48:49.643Z,99.99
2018-09-11T01:49:49.548Z,99.99
2018-09-11T01:50:49.458Z,99.99
2018-09-11T01:51:49.365Z,99.99
2018-09-11T01:52:49.287Z,99.99
2018-09-11T01:53:49.181Z,99.99
2018-09-11T01:54:49.094Z,99.99
2018-09-11T01:55:49.006Z,99.99
2018-09-11T01:56:48.905Z,99.99
2018-09-11T01:57:48.831Z,99.99
2018-09-11T01:58:48.720Z,99.99
2018-09-11T01:59:48.629Z,99.99
2018-09-11T02:00:48.537Z,99.99
2018-09-11T02:01:48.443Z,99.99
2018-09-11T02:02:48.371Z,99.99
2018-09-11T02:03:48.257Z,99.99
2018-09-11T02:04:48.168Z,99.99
2018-09-11T02:05:48.076Z,99.99
2018-09-11T02:06:47.983Z,99.99
2018-09-11T02:07:47.908Z,99.99
2018-09-11T02:08:47.801Z,99.99
2018-09-11T02:09:47.706Z,99.99
2018-09-11T02:10:47.613Z,99.99
2018-09-11T02:11:47.522Z,99.99
2018-09-11T02:12:47.445Z,99.99
2018-09-11T02:13:47.339Z,99.99
2018-09-11T02:14:47.245Z,99.99
2018-09-11T02:15:47.153Z,99.99
2018-09-11T02:16:47.060Z,99.99
2018-09-11T02:17:46.984Z,99.99
2018-09-11T02:18:46.873Z,99.99
2018-09-11T02:19:46.784Z,99.99
2018-09-11T02:20:46.688Z,99.99
2018-09-11T02:21:46.596Z,99.99
2018-09-11T02:22:46.523Z,99.99
2018-09-11T02:23:46.416Z,99.99
2018-09-11T02:24:46.322Z,99.99
2018-09-11T02:25:46.230Z,99.99
2018-09-11T02:26:46.138Z,99.99
2018-09-11T02:27:46.062Z,99.99
2018-09-11T02:28:45.954Z,99.99
2018-09-11T02:29:45.859Z,99.99
2018-09-11T02:30:45.767Z,99.99
2018-09-11T02:31:45.684Z,99.99
2018-09-11T02:32:45.600Z,99.99
2018-09-11T02:33:45.490Z,99.99
2018-09-11T02:34:45.395Z,99.99
2018-09-11T02:35:45.361Z,99.99
2018-09-11T02:36:45.215Z,99.99
2018-09-11T02:37:45.140Z,99.99
2018-09-11T02:38:45.037Z,99.99
2018-09-11T02:39:44.933Z,99.99
2018-09-11T02:40:44.843Z,99.99
2018-09-11T02:41:44.751Z,99.99
2018-09-11T02:42:44.676Z,99.99
2018-09-11T02:43:44.570Z,99.99
2018-09-11T02:44:44.469Z,99.99
2018-09-11T02:45:44.378Z,99.99
2018-09-11T02:46:44.283Z,99.99
2018-09-11T02:47:44.208Z,99.99
2018-09-11T02:48:44.100Z,99.99
2018-09-11T02:49:44.011Z,99.99
2018-09-11T02:50:43.938Z,99.99
2018-09-11T02:51:43.823Z,99.99
2018-09-11T02:52:44.158Z,99.99
2018-09-11T02:53:43.637Z,99.99
2018-09-11T02:54:43.548Z,99.99
2018-09-11T02:55:43.457Z,99.99
2018-09-11T02:56:43.360Z,99.99
2018-09-11T02:57:43.282Z,99.99
2018-09-11T02:58:43.178Z,99.99
2018-09-11T02:59:43.186Z,99.99
2018-09-11T03:00:42.988Z,99.99
2018-09-11T03:01:42.898Z,99.99
2018-09-11T03:02:42.805Z,99.99
2018-09-11T03:03:42.729Z,99.99
2018-09-11T03:04:42.620Z,99.99
2018-09-11T03:05:42.526Z,99.99
2018-09-11T03:06:42.538Z,99.99
2018-09-11T03:07:42.357Z,99.99
2018-09-11T03:08:42.250Z,99.99
2018-09-11T03:09:42.153Z,99.99
2018-09-11T03:10:42.062Z,99.99
2018-09-11T03:11:41.989Z,99.99
2018-09-11T03:12:41.879Z,99.99
2018-09-11T03:13:41.908Z,99.99
2018-09-11T03:14:41.691Z,99.99
2018-09-11T03:15:41.597Z,99.99
2018-09-11T03:16:41.506Z,99.99
2018-09-11T03:17:41.415Z,99.99
2018-09-11T03:18:41.376Z,99.99
2018-09-11T03:19:41.227Z,99.99
2018-09-11T03:20:41.235Z,99.99
2018-09-11T03:21:41.041Z,99.99
2018-09-11T03:22:40.951Z,99.99
2018-09-11T03:23:40.873Z,99.99
2018-09-11T03:24:40.762Z,99.99
2018-09-11T03:25:40.670Z,99.99
2018-09-11T03:26:40.577Z,99.99
2018-09-11T03:27:40.583Z,99.99
2018-09-11T03:28:40.409Z,99.99
2018-09-11T03:29:40.296Z,99.99
2018-09-11T03:30:40.208Z,99.99
2018-09-11T03:31:40.115Z,99.99
2018-09-11T03:32:40.020Z,99.99
2018-09-11T03:33:39.972Z,99.99
2018-09-11T03:34:39.938Z,99.99
2018-09-11T03:35:39.740Z,99.99
2018-09-11T03:36:39.647Z,99.99
2018-09-11T03:37:39.552Z,99.99
2018-09-11T03:38:39.480Z,99.99
2018-09-11T03:39:39.368Z,99.99
2018-09-11T03:40:39.274Z,99.99
2018-09-11T03:41:39.181Z,99.99
2018-09-11T03:42:39.088Z,99.99
2018-09-11T03:43:39.012Z,99.99
2018-09-11T03:44:38.905Z,99.99
2018-09-11T03:45:38.807Z,99.99
2018-09-11T03:46:38.712Z,99.99
2018-09-11T03:47:38.623Z,99.99
2018-09-11T03:48:38.648Z,99.99
2018-09-11T03:49:38.435Z,99.99
2018-09-11T03:50:38.345Z,99.99
2018-09-11T03:51:38.266Z,99.99
2018-09-11T03:52:38.156Z,99.99
2018-09-11T03:53:38.083Z,99.99
2018-09-11T03:54:38.091Z,99.99
2018-09-11T03:55:37.876Z,99.99
2018-09-11T03:56:37.784Z,99.99
2018-09-11T03:57:37.690Z,99.99
2018-09-11T03:58:37.613Z,99.99
2018-09-11T03:59:37.505Z,99.99
2018-09-11T04:00:37.413Z,99.99
2018-09-11T04:01:37.318Z,99.99
2018-09-11T04:02:37.224Z,99.99
2018-09-11T04:03:37.154Z,99.99
2018-09-11T04:04:37.043Z,99.99
2018-09-11T04:05:37.010Z,99.99
2018-09-11T04:06:36.851Z,99.99
2018-09-11T04:07:36.760Z,99.99
2018-09-11T04:08:36.681Z,99.99
2018-09-11T04:09:36.574Z,99.99
2018-09-11T04:10:36.478Z,99.99
2018-09-11T04:11:36.389Z,99.99
2018-09-11T04:12:36.291Z,99.99
2018-09-11T04:13:36.218Z,99.99
2018-09-11T04:14:36.107Z,99.99
2018-09-11T04:15:36.014Z,99.99
2018-09-11T04:16:35.920Z,99.99
2018-09-11T04:17:35.830Z,99.99
2018-09-11T04:18:35.750Z,99.99
2018-09-11T04:19:35.647Z,99.99
2018-09-11T04:20:35.553Z,99.99
2018-09-11T04:21:35.455Z,99.99
2018-09-11T04:22:35.366Z,99.99
2018-09-11T04:23:35.285Z,99.99
2018-09-11T04:24:35.178Z,99.99
2018-09-11T04:25:35.140Z,99.99
2018-09-11T04:26:34.989Z,99.99
2018-09-11T04:27:34.896Z,99.99
2018-09-11T04:28:34.824Z,99.99
2018-09-11T04:29:34.709Z,99.99
2018-09-11T04:30:34.616Z,99.99
2018-09-11T04:31:34.526Z,99.99
2018-09-11T04:32:34.430Z,99.99
2018-09-11T04:33:34.354Z,99.99
2018-09-11T04:34:34.247Z,99.99
2018-09-11T04:35:34.156Z,99.99
2018-09-11T04:36:34.146Z,99.99
2018-09-11T04:37:33.965Z,99.99
2018-09-11T04:38:33.893Z,99.99
2018-09-11T04:39:33.782Z,99.99
2018-09-11T04:40:33.684Z,99.99
2018-09-11T04:41:33.595Z,99.99
2018-09-11T04:42:33.501Z,99.99
2018-09-11T04:43:33.427Z,99.99
2018-09-11T04:44:33.317Z,99.99
2018-09-11T04:45:33.222Z,99.99
2018-09-11T04:46:33.129Z,99.99
2018-09-11T04:47:33.040Z,99.99
2018-09-11T04:48:32.961Z,99.99
2018-09-11T04:49:32.850Z,99.99
2018-09-11T04:50:32.755Z,99.99
2018-09-11T04:51:32.662Z,99.99
2018-09-11T04:52:32.571Z,99.99
2018-09-11T04:53:32.477Z,99.99
2018-09-11T04:54:32.400Z,99.99
2018-09-11T04:55:32.292Z,99.99
2018-09-11T04:56:32.199Z,99.99
2018-09-11T04:57:32.105Z,99.99
2018-09-11T04:58:32.016Z,99.99
2018-09-11T04:59:31.934Z,99.99
2018-09-11T05:00:31.824Z,99.99
2018-09-11T05:01:31.732Z,99.99
2018-09-11T05:02:31.637Z,99.99
2018-09-11T05:03:31.566Z,99.99
2018-09-11T05:04:31.470Z,99.99
2018-09-11T05:05:31.364Z,99.99
2018-09-11T05:06:31.266Z,99.99
2018-09-11T05:07:31.169Z,99.99
2018-09-11T05:08:31.081Z,99.99
2018-09-11T05:09:31.000Z,99.99
2018-09-11T05:10:30.888Z,99.99
2018-09-11T05:11:30.899Z,99.99
2018-09-11T05:12:30.706Z,99.99
2018-09-11T05:13:30.611Z,99.99
2018-09-11T05:14:30.536Z,99.99
2018-09-11T05:15:30.429Z,99.99
2018-09-11T05:16:30.333Z,99.99
2018-09-11T05:17:30.237Z,99.99
2018-09-11T05:18:30.242Z,99.99
2018-09-11T05:19:30.065Z,99.99
2018-09-11T05:20:29.961Z,99.99
2018-09-11T05:21:29.862Z,99.99
2018-09-11T05:22:29.769Z,99.99
2018-09-11T05:23:29.695Z,99.99
2018-09-11T05:24:29.601Z,99.99
2018-09-11T05:25:29.586Z,99.99
2018-09-11T05:26:29.399Z,99.99
2018-09-11T05:27:29.386Z,99.99
2018-09-11T05:28:29.211Z,99.99
2018-09-11T05:29:29.131Z,99.99
2018-09-11T05:30:29.024Z,99.99
2018-09-11T05:31:28.931Z,99.99
2018-09-11T05:32:28.936Z,99.99
2018-09-11T05:33:28.742Z,99.99
2018-09-11T05:34:28.663Z,99.99
2018-09-11T05:35:28.558Z,99.99
2018-09-11T05:36:28.462Z,99.99
2018-09-11T05:37:28.368Z,99.99
2018-09-11T05:38:28.280Z,99.99
2018-09-11T05:39:28.302Z,99.99
2018-09-11T05:40:28.090Z,99.99
2018-09-11T05:41:27.998Z,99.99
2018-09-11T05:42:27.903Z,99.99
2018-09-11T05:43:27.813Z,99.99
2018-09-11T05:44:27.733Z,99.99
2018-09-11T05:45:27.625Z,99.99
2018-09-11T05:46:27.628Z,99.99
2018-09-11T05:47:27.438Z,99.99
2018-09-11T05:48:27.348Z,99.99
2018-09-11T05:49:27.270Z,99.99
2018-09-11T05:50:27.161Z,99.99
2018-09-11T05:51:27.070Z,99.99
2018-09-11T05:52:26.977Z,99.99
2018-09-11T05:53:26.996Z,99.99
2018-09-11T05:54:26.806Z,99.99
2018-09-11T05:55:26.699Z,99.99
2018-09-11T05:56:26.604Z,99.99
2018-09-11T05:57:26.513Z,99.99
2018-09-11T05:58:26.508Z,99.99
2018-09-11T05:59:26.347Z,99.99
2018-09-11T06:00:26.339Z,99.99
2018-09-11T06:01:26.142Z,99.99
2018-09-11T06:02:26.055Z,99.99
2018-09-11T06:03:25.965Z,99.99
2018-09-11T06:04:25.886Z,99.99
2018-09-11T06:05:25.777Z,99.99
2018-09-11T06:06:25.682Z,99.99
2018-09-11T06:07:25.591Z,99.99
2018-09-11T06:08:25.501Z,99.99
2018-09-11T06:09:25.429Z,99.99
2018-09-11T06:10:25.317Z,99.99
2018-09-11T06:11:25.225Z,99.99
2018-09-11T06:12:25.136Z,99.99
2018-09-11T06:13:25.045Z,99.99
2018-09-11T06:14:24.966Z,99.99
2018-09-11T06:15:24.859Z,99.99
2018-09-11T06:16:24.833Z,99.99
2018-09-11T06:17:24.676Z,99.99
2018-09-11T06:18:24.584Z,99.99
2018-09-11T06:19:24.507Z,99.99
2018-09-11T06:20:24.406Z,99.99
2018-09-11T06:21:24.424Z,99.99
2018-09-11T06:22:24.225Z,99.99
2018-09-11T06:23:24.132Z,99.99
2018-09-11T06:24:24.064Z,99.99
2018-09-11T06:25:23.950Z,99.99
2018-09-11T06:26:23.861Z,99.99
2018-09-11T06:27:23.770Z,99.99
2018-09-11T06:28:23.678Z,99.99
2018-09-11T06:29:23.610Z,99.99
2018-09-11T06:30:23.494Z,99.99
2018-09-11T06:31:23.405Z,99.99
2018-09-11T06:32:23.318Z,99.99
2018-09-11T06:33:23.228Z,99.99
2018-09-11T06:34:23.151Z,99.99
2018-09-11T06:35:23.050Z,99.99
2018-09-11T06:36:22.953Z,99.99
2018-09-11T06:37:22.865Z,99.99
2018-09-11T06:38:22.775Z,99.99
2018-09-11T06:39:22.685Z,99.99
2018-09-11T06:40:22.614Z,99.99
2018-09-11T06:41:22.504Z,99.99
2018-09-11T06:42:22.419Z,99.06
2018-09-11T06:43:22.328Z,98.77
2018-09-11T06:44:22.240Z,98.34
2018-09-11T06:45:22.166Z,97.57
2018-09-11T06:46:22.063Z,96.32
2018-09-11T06:47:21.977Z,95.55
2018-09-11T06:48:21.881Z,95.84
2018-09-11T06:49:21.799Z,96.42
2018-09-11T06:50:21.722Z,96.13
2018-09-11T06:51:21.619Z,95.50
2018-09-11T06:52:21.527Z,94.49
2018-09-11T06:53:21.444Z,94.98
2018-09-11T06:54:21.355Z,94.59
2018-09-11T06:55:21.282Z,94.49
2018-09-11T06:56:21.179Z,95.17
2018-09-11T06:57:21.089Z,95.26
2018-09-11T06:58:21.002Z,94.49
2018-09-11T06:59:20.913Z,95.45
2018-09-11T07:00:20.842Z,96.22
2018-09-11T07:01:20.735Z,95.65
2018-09-11T07:02:20.650Z,96.51
2018-09-11T07:03:20.562Z,95.45
2018-09-11T07:04:20.474Z,95.36
2018-09-11T07:05:20.404Z,96.51
2018-09-11T07:06:20.306Z,94.64
2018-09-11T07:07:20.227Z,94.25
2018-09-11T07:08:20.128Z,94.64
2018-09-11T07:09:20.035Z,94.54
2018-09-11T07:10:19.969Z,94.83
2018-09-11T07:11:19.862Z,95.36
2018-09-11T07:12:19.772Z,96.08
2018-09-11T07:13:19.685Z,95.31
2018-09-11T07:14:19.599Z,94.92
2018-09-11T07:15:19.526Z,94.45
2018-09-11T07:16:19.422Z,95.45
2018-09-11T07:17:19.334Z,94.87
2018-09-11T07:18:19.248Z,94.54
2018-09-11T07:19:19.159Z,91.94
2018-09-11T07:20:19.315Z,89.96
2018-09-11T07:21:18.987Z,90.39
2018-09-11T07:22:18.900Z,89.33
2018-09-11T07:23:18.814Z,88.56
2018-09-11T07:24:18.726Z,87.40
2018-09-11T07:25:18.657Z,86.29
2018-09-11T07:26:18.553Z,84.79
2018-09-11T07:27:18.466Z,84.41
2018-09-11T07:28:18.386Z,83.15
2018-09-11T07:29:18.297Z,82.67
2018-09-11T07:30:18.373Z,82.38
2018-09-11T07:31:18.158Z,83.15
2018-09-11T07:32:18.059Z,83.50
2018-09-11T07:33:17.951Z,84.17
2018-09-11T07:34:17.865Z,83.15
2018-09-11T07:35:17.799Z,82.76
2018-09-11T07:36:17.721Z,82.23
2018-09-11T07:37:17.607Z,81.98
2018-09-11T07:38:17.527Z,80.82
2018-09-11T07:39:17.439Z,80.49
2018-09-11T07:40:17.368Z,80.78
2018-09-11T07:41:17.267Z,81.45
2018-09-11T07:42:17.181Z,81.70
2018-09-11T07:43:17.096Z,81.07
2018-09-11T07:44:17.116Z,80.78
2018-09-11T07:45:17.003Z,80.20
2018-09-11T07:46:16.843Z,80.68
2018-09-11T07:47:16.763Z,81.11
2018-09-11T07:48:16.676Z,79.66
2018-09-11T07:49:16.585Z,79.27
2018-09-11T07:50:16.521Z,80.18
2018-09-11T07:51:16.533Z,80.18
2018-09-11T07:52:16.337Z,77.67
2018-09-11T07:53:16.249Z,77.13
2018-09-11T07:54:16.167Z,76.84
2018-09-11T07:55:16.099Z,77.22
2018-09-11T07:56:16.005Z,76.39
2018-09-11T07:57:15.912Z,75.37
2018-09-11T07:58:15.934Z,75.52
2018-09-11T07:59:15.751Z,75.52
2018-09-11T08:00:15.679Z,77.03
2018-09-11T08:01:15.589Z,74.94
2018-09-11T08:02:15.498Z,75.46
2018-09-11T08:03:15.413Z,73.72
2018-09-11T08:04:15.327Z,72.79
2018-09-11T08:05:19.763Z,73.21
2018-09-11T08:06:15.163Z,72.69
2018-09-11T08:07:15.082Z,72.30
2018-09-11T08:08:14.996Z,72.63
2018-09-11T08:09:14.918Z,72.15
2018-09-11T08:10:14.847Z,71.86
2018-09-11T08:11:14.749Z,71.82
2018-09-11T08:12:14.766Z,71.92
2018-09-11T08:13:14.580Z,72.46
2018-09-11T08:14:14.503Z,73.39
2018-09-11T08:15:14.438Z,73.49
2018-09-11T08:16:14.341Z,73.88
2018-09-11T08:17:14.252Z,74.62
2018-09-11T08:18:14.171Z,76.55
2018-09-11T08:19:14.088Z,76.06
2018-09-11T08:20:14.025Z,76.86
2018-09-11T08:21:13.921Z,76.57
2018-09-11T08:22:13.837Z,76.12
2018-09-11T08:23:13.756Z,76.51
2018-09-11T08:24:13.680Z,75.97
2018-09-11T08:25:13.591Z,74.94
2018-09-11T08:26:13.522Z,74.59
2018-09-11T08:27:13.425Z,73.82
2018-09-11T08:28:13.339Z,74.21
2018-09-11T08:29:13.314Z,73.18
2018-09-11T08:30:13.176Z,72.92
2018-09-11T08:31:13.109Z,72.05
2018-09-11T08:32:13.011Z,70.34
2018-09-11T08:33:12.927Z,70.70
2018-09-11T08:34:12.843Z,70.05
2018-09-11T08:35:12.775Z,70.15
2018-09-11T08:36:12.695Z,71.41
2018-09-11T08:37:12.603Z,69.60
2018-09-11T08:38:12.513Z,68.44
2018-09-11T08:39:12.431Z,69.31
2018-09-11T08:40:12.354Z,67.99
2018-09-11T08:41:12.304Z,69.08
2018-09-11T08:42:12.185Z,69.21
2018-09-11T08:43:12.104Z,68.15
2018-09-11T08:44:12.022Z,69.02
2018-09-11T08:45:11.947Z,68.30
2018-09-11T08:46:11.874Z,69.24
2018-09-11T08:47:11.774Z,68.15
2018-09-11T08:48:11.695Z,67.66
2018-09-11T08:49:11.614Z,67.08
2018-09-11T08:50:11.535Z,66.79
2018-09-11T08:51:11.466Z,66.82
2018-09-11T08:52:11.381Z,66.82
2018-09-11T08:53:11.287Z,66.79
2018-09-11T08:54:11.201Z,69.02
2018-09-11T08:55:11.126Z,70.11
2018-09-11T08:56:11.057Z,69.76
2018-09-11T08:57:10.960Z,69.18
2018-09-11T08:58:10.880Z,69.02
2018-09-11T08:59:10.798Z,69.60
2018-09-11T09:00:10.717Z,68.15
2018-09-11T09:01:10.650Z,65.34
2018-09-11T09:02:10.849Z,66.44
2018-09-11T09:03:10.470Z,65.50
2018-09-11T09:04:10.391Z,65.20
2018-09-11T09:05:10.313Z,65.30
2018-09-11T09:06:10.245Z,65.69
2018-09-11T09:07:10.148Z,65.56
2018-09-11T09:08:10.063Z,67.18
2018-09-11T09:09:09.981Z,66.66
2018-09-11T09:10:09.987Z,66.95
2018-09-11T09:11:09.835Z,67.08
2018-09-11T09:12:09.742Z,66.69
2018-09-11T09:13:09.654Z,66.14
2018-09-11T09:14:09.578Z,66.14
2018-09-11T09:15:09.505Z,65.20
2018-09-11T09:16:09.433Z,63.26
2018-09-11T09:17:09.332Z,63.10
2018-09-11T09:18:09.253Z,61.77
2018-09-11T09:19:09.171Z,62.74
2018-09-11T09:20:09.089Z,61.16
2018-09-11T09:21:09.022Z,62.07
2018-09-11T09:22:08.943Z,62.23
2018-09-11T09:23:08.847Z,62.04
2018-09-11T09:24:08.770Z,61.71
2018-09-11T09:25:08.686Z,61.07
2018-09-11T09:26:08.625Z,60.38
2018-09-11T09:27:08.529Z,60.94
2018-09-11T09:28:08.447Z,61.13
2018-09-11T09:29:08.365Z,61.91
2018-09-11T09:30:08.285Z,61.81
2018-09-11T09:31:08.219Z,61.94
2018-09-11T09:32:08.122Z,61.32
2018-09-11T09:33:08.044Z,61.71
2018-09-11T09:34:07.959Z,62.19
2018-09-11T09:35:07.885Z,60.94
2018-09-11T09:36:07.820Z,61.58
2018-09-11T09:37:07.721Z,60.45
2018-09-11T09:38:07.639Z,60.23
2018-09-11T09:39:07.559Z,62.72
2018-09-11T09:40:07.479Z,63.04
2018-09-11T09:41:07.412Z,63.43
2018-09-11T09:42:07.320Z,63.56
2018-09-11T09:43:07.245Z,63.17
2018-09-11T09:44:07.232Z,62.71
2018-09-11T09:45:07.077Z,59.80
2018-09-11T09:46:07.012Z,60.22
2018-09-11T09:47:06.916Z,59.05
2018-09-11T09:48:06.833Z,59.86
2018-09-11T09:49:06.755Z,58.98
2018-09-11T09:50:06.672Z,58.86
2018-09-11T09:51:06.613Z,58.14
2018-09-11T09:52:06.548Z,56.75
2018-09-11T09:53:06.433Z,56.87
2018-09-11T09:54:06.351Z,58.14
2018-09-11T09:55:06.277Z,57.82
2018-09-11T09:56:06.230Z,57.85
2018-09-11T09:57:06.110Z,57.72
2018-09-11T09:58:06.034Z,58.69
2018-09-11T09:59:05.950Z,57.11
2018-09-11T10:00:05.875Z,58.40
2018-09-11T10:01:05.812Z,58.95
2018-09-11T10:02:05.717Z,57.98
2018-09-11T10:03:05.633Z,58.57
2018-09-11T10:04:05.554Z,58.73
2018-09-11T10:05:05.471Z,57.79
2018-09-11T10:06:05.405Z,56.98
2018-09-11T10:07:05.310Z,57.47
2018-09-11T10:08:05.231Z,58.05
2018-09-11T10:09:05.149Z,58.95
2018-09-11T10:10:05.077Z,58.67
2018-09-11T10:11:04.997Z,56.85
2018-09-11T10:12:04.928Z,57.62
2018-09-11T10:13:04.833Z,56.34
2018-09-11T10:14:04.750Z,56.89
2018-09-11T10:15:04.673Z,58.37
2018-09-11T10:16:04.612Z,57.11
2018-09-11T10:17:04.511Z,57.62
2018-09-11T10:18:04.433Z,57.98
2018-09-11T10:19:04.356Z,57.82
2018-09-11T10:20:04.288Z,57.04
2018-09-11T10:21:04.192Z,56.29
2018-09-11T10:22:04.134Z,56.68
2018-09-11T10:23:04.029Z,56.10
2018-09-11T10:24:03.951Z,56.10
2018-09-11T10:25:03.872Z,55.90
2018-09-11T10:26:03.793Z,56.87
2018-09-11T10:27:03.730Z,55.71
2018-09-11T10:28:03.632Z,55.90
2018-09-11T10:29:03.555Z,54.38
2018-09-11T10:30:03.471Z,53.99
2018-09-11T10:31:03.395Z,52.62
2018-09-11T10:32:03.418Z,53.01
2018-09-11T10:33:03.228Z,54.28
2018-09-11T10:34:03.159Z,54.86
2018-09-11T10:35:03.074Z,55.47
2018-09-11T10:36:02.994Z,54.99
2018-09-11T10:37:02.929Z,55.15
2018-09-11T10:38:02.834Z,53.04
2018-09-11T10:39:02.758Z,52.98
2018-09-11T10:40:02.674Z,52.43
2018-09-11T10:41:02.596Z,51.99
2018-09-11T10:42:02.537Z,51.31
2018-09-11T10:43:02.444Z,51.21
2018-09-11T10:44:02.356Z,51.97
2018-09-11T10:45:02.329Z,52.14
2018-09-11T10:46:02.294Z,52.65
2018-09-11T10:47:02.137Z,52.72
2018-09-11T10:48:02.040Z,52.72
2018-09-11T10:49:01.959Z,53.01
2018-09-11T10:50:01.883Z,53.72
2018-09-11T10:51:01.803Z,53.72
2018-09-11T10:52:01.740Z,53.42
2018-09-11T10:53:01.753Z,55.05
2018-09-11T10:54:01.562Z,53.52
2018-09-11T10:55:01.486Z,54.38
2018-09-11T10:56:01.409Z,55.08
2018-09-11T10:57:01.341Z,55.83
2018-09-11T10:58:01.246Z,54.96
2018-09-11T10:59:01.167Z,54.68
2018-09-11T11:00:01.194Z,58.00
2018-09-11T11:01:01.011Z,58.84
2018-09-11T11:02:00.944Z,58.55
2018-09-11T11:03:00.851Z,59.13
2018-09-11T11:04:00.770Z,58.84
2018-09-11T11:05:00.691Z,57.42
2018-09-11T11:06:00.610Z,58.36
2018-09-11T11:07:00.633Z,60.00
2018-09-11T11:08:00.451Z,59.88
2018-09-11T11:09:00.368Z,60.14
2018-09-11T11:10:00.290Z,60.04
2018-09-11T11:11:00.215Z,60.82
2018-09-11T11:12:00.143Z,60.98
2018-09-11T11:13:00.047Z,61.85
2018-09-11T11:14:00.067Z,61.08
2018-09-11T11:14:59.889Z,61.66
2018-09-11T11:15:59.801Z,60.50
2018-09-11T11:16:59.759Z,60.88
2018-09-11T11:17:59.641Z,61.33
2018-09-11T11:18:59.576Z,61.53
2018-09-11T11:19:59.474Z,59.40
2018-09-11T11:20:59.503Z,61.18
2018-09-11T11:21:59.326Z,60.59
2018-09-11T11:22:59.235Z,59.75
2018-09-11T11:23:59.147Z,59.07
2018-09-11T11:24:59.066Z,60.14
2018-09-11T11:25:58.981Z,60.50
2018-09-11T11:26:58.950Z,60.04
2018-09-11T11:27:58.926Z,61.95
2018-09-11T11:28:58.742Z,60.98
2018-09-11T11:29:58.654Z,60.43
2018-09-11T11:30:58.569Z,59.94
2018-09-11T11:31:58.505Z,60.82
2018-09-11T11:32:58.405Z,62.75
2018-09-11T11:33:58.318Z,60.82
2018-09-11T11:34:58.336Z,59.97
2018-09-11T11:35:58.211Z,60.65
2018-09-11T11:36:58.400Z,58.39
2018-09-11T11:37:57.986Z,57.80
2018-09-11T11:38:57.903Z,57.29
2018-09-11T11:39:57.822Z,56.41
2018-09-11T11:40:57.760Z,58.04
2018-09-11T11:41:57.675Z,58.91
2018-09-11T11:42:57.570Z,60.52
2018-09-11T11:43:57.494Z,59.10
2018-09-11T11:44:57.411Z,60.82
2018-09-11T11:45:57.327Z,59.66
2018-09-11T11:46:57.259Z,61.40
2018-09-11T11:47:57.160Z,60.62
2018-09-11T11:48:57.077Z,59.75
2018-09-11T11:49:56.996Z,59.46
2018-09-11T11:50:56.909Z,60.24
2018-09-11T11:51:56.842Z,61.01
2018-09-11T11:52:56.743Z,60.82
2018-09-11T11:53:56.659Z,60.52
2018-09-11T11:54:56.600Z,61.01
2018-09-11T11:55:56.499Z,60.52
2018-09-11T11:56:56.426Z,59.27
2018-09-11T11:57:56.328Z,59.84
2018-09-11T11:58:56.245Z,59.88
2018-09-11T11:59:56.160Z,59.39
2018-09-11T12:00:56.078Z,59.10
2018-09-11T12:01:56.042Z,60.24
2018-09-11T12:02:55.930Z,60.52
2018-09-11T12:03:55.825Z,61.01
2018-09-11T12:04:55.742Z,59.46
2018-09-11T12:05:55.662Z,60.52
2018-09-11T12:06:55.579Z,60.91
2018-09-11T12:07:55.526Z,61.14
2018-09-11T12:08:55.412Z,61.62
2018-09-11T12:09:55.328Z,61.36
2018-09-11T12:10:55.243Z,59.42
2018-09-11T12:11:55.161Z,58.94
2018-09-11T12:12:55.092Z,59.23
2018-09-11T12:13:55.000Z,58.48
2018-09-11T12:14:54.910Z,58.39
2018-09-11T12:15:54.826Z,58.80
2018-09-11T12:16:54.773Z,59.12
2018-09-11T12:17:54.678Z,54.97
2018-09-11T12:18:54.576Z,55.36
2018-09-11T12:19:54.494Z,54.97
2018-09-11T12:20:54.413Z,55.85
2018-09-11T12:21:54.338Z,54.20
2018-09-11T12:22:54.264Z,52.64
2018-09-11T12:23:54.166Z,53.74
2018-09-11T12:24:54.077Z,54.85
2018-09-11T12:25:54.001Z,55.89
2018-09-11T12:26:53.942Z,54.90
2018-09-11T12:27:53.852Z,55.18
2018-09-11T12:28:53.751Z,56.54
2018-09-11T12:29:53.672Z,55.16
2018-09-11T12:30:53.589Z,55.54
2018-09-11T12:31:53.508Z,56.15
2018-09-11T12:32:53.445Z,55.74
2018-09-11T12:33:53.346Z,56.20
2018-09-11T12:34:53.255Z,56.68
2018-09-11T12:35:53.172Z,56.94
2018-09-11T12:36:53.094Z,58.14
2018-09-11T12:37:53.025Z,57.36
2018-09-11T12:38:52.926Z,57.75
2018-09-11T12:39:52.845Z,57.09
2018-09-11T12:40:52.761Z,56.51
2018-09-11T12:41:52.681Z,56.13
2018-09-11T12:42:52.612Z,56.61
2018-09-11T12:43:52.519Z,56.15
2018-09-11T12:44:52.433Z,57.44
2018-09-11T12:45:52.466Z,56.28
2018-09-11T12:46:52.283Z,55.41
2018-09-11T12:47:52.632Z,56.37
2018-09-11T12:48:52.117Z,56.54
2018-09-11T12:49:52.015Z,55.57
2018-09-11T12:50:51.935Z,55.57
2018-09-11T12:51:51.850Z,54.67